Andrews Air Force Base, Maryland
Current Conditions -  °F | °C
As of 3:58 PM on Tuesday 27 Jan 2015 (Local Time) from KADW Reporting Station
Broken Clouds Broken Clouds  
Wind Chill: 22°   Ceiling: 10000
Heat Index: 33°   Visibility: 10mi
Dew Point: 24°   Wind: 16mph
Humidity: 68%   Direction: 300°WNW
Pressure: 29.79"   Gusts: NA
Location:  38.8062°N, 76.8756°W
Report Text: KADW 272058Z AUTO 30014KT 10SM BKN100 01/M05 A2979 RMK AO2 SLP098 T00051047 53006 $
Loading
Personal Weather Stations






























Interactive Weather Map New forecast layout! Learn more

10-Day Weather Forecast

Advertisements
Track Severe Weather on mobile